createdAt,value
2023-05-20T00:00:23.142Z,95.56
2023-05-20T00:03:10.763Z,94.27
2023-05-20T00:05:38.437Z,94.59
2023-05-20T00:08:09.368Z,94.44
2023-05-20T00:10:36.987Z,93.85
2023-05-20T00:13:04.340Z,93.38
2023-05-20T00:15:32.847Z,93.03
2023-05-20T00:18:04.261Z,94.17
2023-05-20T00:20:32.695Z,93.99
2023-05-20T00:23:00.186Z,94.09
2023-05-20T00:25:27.710Z,93.78
2023-05-20T00:27:54.938Z,94.09
2023-05-20T00:30:22.715Z,95.30
2023-05-20T00:32:50.062Z,95.42
2023-05-20T00:35:17.748Z,94.18
2023-05-20T00:37:45.807Z,94.54
2023-05-20T00:40:15.401Z,94.00
2023-05-20T00:42:43.473Z,93.60
2023-05-20T00:45:11.292Z,93.23
2023-05-20T00:47:39.366Z,93.30
2023-05-20T00:50:10.568Z,91.83
2023-05-20T00:52:41.678Z,92.00
2023-05-20T00:55:09.637Z,91.84
2023-05-20T00:57:37.044Z,91.52
2023-05-20T01:00:06.026Z,91.43
2023-05-20T01:02:33.463Z,91.73
2023-05-20T01:05:01.561Z,93.92
2023-05-20T01:07:28.994Z,93.46
2023-05-20T01:09:56.688Z,93.69
2023-05-20T01:12:29.826Z,94.71
2023-05-20T01:15:11.911Z,94.08
2023-05-20T01:17:45.215Z,93.64
2023-05-20T01:20:14.883Z,92.64
2023-05-20T01:22:49.607Z,92.08
2023-05-20T01:25:17.197Z,91.62
2023-05-20T01:27:49.099Z,91.73
2023-05-20T01:30:17.235Z,91.79
2023-05-20T01:33:09.330Z,91.37
2023-05-20T01:35:38.980Z,91.61
2023-05-20T01:38:07.951Z,92.27
2023-05-20T01:40:36.278Z,91.36
2023-05-20T01:43:03.901Z,91.75
2023-05-20T01:45:31.957Z,92.06
2023-05-20T01:48:01.867Z,89.21
2023-05-20T01:50:29.687Z,90.54
2023-05-20T01:52:56.946Z,89.98
2023-05-20T01:55:25.748Z,89.77
2023-05-20T01:57:52.960Z,89.10
2023-05-20T02:00:21.518Z,89.42
2023-05-20T02:02:49.481Z,89.82
2023-05-20T02:05:17.312Z,89.28
2023-05-20T02:07:44.818Z,89.78
2023-05-20T02:10:12.492Z,88.54
2023-05-20T02:12:39.765Z,89.18
2023-05-20T02:15:07.782Z,89.01
2023-05-20T02:17:36.115Z,89.45
2023-05-20T02:20:06.712Z,89.12
2023-05-20T02:22:35.173Z,88.79
2023-05-20T02:25:04.497Z,87.77
2023-05-20T02:27:31.871Z,87.86
2023-05-20T02:30:01.002Z,88.23
2023-05-20T02:32:29.057Z,87.73
2023-05-20T02:34:56.717Z,88.40
2023-05-20T02:37:24.054Z,87.37
2023-05-20T02:39:51.729Z,87.71
2023-05-20T02:42:19.020Z,87.63
2023-05-20T02:44:46.813Z,87.67
2023-05-20T02:47:14.562Z,87.63
2023-05-20T02:49:42.366Z,87.42
2023-05-20T02:52:10.453Z,88.09
2023-05-20T02:54:38.011Z,86.72
2023-05-20T02:57:05.624Z,86.17
2023-05-20T02:59:33.219Z,86.32
2023-05-20T03:02:00.588Z,86.37
2023-05-20T03:04:28.405Z,87.15
2023-05-20T03:06:57.873Z,87.57
2023-05-20T03:09:25.685Z,85.91
2023-05-20T03:11:53.017Z,85.93
2023-05-20T03:14:20.584Z,86.38
2023-05-20T03:16:47.819Z,85.80
2023-05-20T03:19:16.428Z,85.56
2023-05-20T03:21:43.937Z,84.58
2023-05-20T03:24:11.501Z,85.54
2023-05-20T03:26:43.181Z,85.14
2023-05-20T03:29:11.097Z,86.16
2023-05-20T03:31:38.453Z,85.55
2023-05-20T03:34:06.302Z,84.66
2023-05-20T03:36:33.626Z,85.32
2023-05-20T03:39:02.159Z,85.18
2023-05-20T03:41:30.556Z,85.85
2023-05-20T03:43:58.272Z,86.29
2023-05-20T03:46:27.031Z,87.07
2023-05-20T03:48:54.621Z,85.48
2023-05-20T03:51:22.870Z,85.39
2023-05-20T03:53:51.349Z,85.52
2023-05-20T03:56:18.588Z,85.42
2023-05-20T03:58:45.964Z,85.81
2023-05-20T04:01:14.422Z,85.42
2023-05-20T04:03:44.859Z,85.34
2023-05-20T04:06:14.133Z,85.90
2023-05-20T04:08:42.509Z,86.05
2023-05-20T04:11:10.362Z,85.53
2023-05-20T04:13:37.642Z,86.82
2023-05-20T04:16:05.748Z,87.69
2023-05-20T04:18:33.023Z,87.03
2023-05-20T04:21:01.708Z,86.27
2023-05-20T04:23:29.368Z,86.39
2023-05-20T04:26:02.792Z,86.27
2023-05-20T04:28:33.390Z,84.72
2023-05-20T04:31:04.746Z,84.13
2023-05-20T04:33:38.165Z,83.88
2023-05-20T04:36:15.581Z,83.25
2023-05-20T04:38:44.606Z,83.45
2023-05-20T04:41:12.236Z,83.91
2023-05-20T04:43:40.428Z,84.05
2023-05-20T04:46:08.973Z,85.01
2023-05-20T04:48:36.760Z,86.78
2023-05-20T04:51:04.495Z,85.07
2023-05-20T04:53:34.051Z,83.83
2023-05-20T04:56:03.560Z,82.41
2023-05-20T04:58:31.850Z,82.65
2023-05-20T05:01:00.243Z,84.51
2023-05-20T05:03:28.716Z,83.20
2023-05-20T05:05:59.001Z,83.12
2023-05-20T05:08:27.108Z,83.93
2023-05-20T05:10:55.020Z,83.72
2023-05-20T05:13:22.326Z,82.93
2023-05-20T05:15:58.745Z,84.35
2023-05-20T05:18:26.828Z,84.00
2023-05-20T05:21:05.890Z,82.15
2023-05-20T05:23:35.105Z,83.70
2023-05-20T05:26:02.814Z,83.30
2023-05-20T05:28:30.163Z,82.79
2023-05-20T05:30:58.748Z,81.29
2023-05-20T05:33:26.809Z,85.18
2023-05-20T05:35:56.860Z,85.10
2023-05-20T05:38:24.106Z,84.52
2023-05-20T05:40:51.907Z,84.57
2023-05-20T05:43:19.180Z,83.25
2023-05-20T05:45:48.792Z,85.13
2023-05-20T05:48:16.183Z,86.07
2023-05-20T05:50:46.195Z,85.25
2023-05-20T05:53:15.277Z,84.58
2023-05-20T05:55:48.598Z,84.79
2023-05-20T05:58:17.248Z,84.59
2023-05-20T06:00:44.836Z,86.06
2023-05-20T06:03:12.989Z,87.82
2023-05-20T06:05:41.012Z,88.04
2023-05-20T06:08:08.897Z,89.02
2023-05-20T06:10:37.318Z,88.04
2023-05-20T06:13:05.098Z,89.16
2023-05-20T06:15:33.922Z,88.42
2023-05-20T06:18:02.293Z,87.78
2023-05-20T06:20:29.965Z,86.91
2023-05-20T06:22:57.349Z,85.79
2023-05-20T06:25:29.634Z,84.87
2023-05-20T06:27:57.015Z,84.97
2023-05-20T06:30:25.233Z,83.55
2023-05-20T06:32:52.686Z,81.78
2023-05-20T06:35:20.449Z,79.27
2023-05-20T06:37:47.745Z,79.16
2023-05-20T06:40:15.507Z,79.53
2023-05-20T06:42:42.784Z,80.09
2023-05-20T06:45:10.977Z,77.29
2023-05-20T06:47:45.242Z,75.69
2023-05-20T06:50:12.887Z,72.94
2023-05-20T06:52:40.387Z,74.64
2023-05-20T06:55:09.906Z,70.72
2023-05-20T06:57:37.363Z,68.19
2023-05-20T07:00:06.086Z,67.25
2023-05-20T07:02:38.001Z,64.75
2023-05-20T07:05:06.812Z,61.74
2023-05-20T07:07:34.767Z,60.38
2023-05-20T07:10:02.512Z,57.17
2023-05-20T07:12:29.790Z,57.50
2023-05-20T07:14:57.301Z,59.43
2023-05-20T07:17:25.184Z,59.50
2023-05-20T07:19:52.788Z,60.92
2023-05-20T07:22:20.328Z,57.08
2023-05-20T07:25:07.047Z,56.25
2023-05-20T07:27:36.644Z,52.48
2023-05-20T07:30:04.655Z,51.81
2023-05-20T07:32:33.362Z,52.09
2023-05-20T07:35:01.480Z,53.06
2023-05-20T07:37:29.033Z,56.02
2023-05-20T07:39:56.807Z,56.19
2023-05-20T07:42:24.113Z,61.37
2023-05-20T07:44:56.163Z,61.61
2023-05-20T07:47:23.411Z,62.13
2023-05-20T07:49:51.001Z,60.01
2023-05-20T07:52:18.333Z,57.57
2023-05-20T07:54:46.486Z,59.27
2023-05-20T07:57:15.053Z,58.90
2023-05-20T07:59:42.736Z,57.02
2023-05-20T08:02:10.181Z,55.67
2023-05-20T08:04:38.181Z,50.84
2023-05-20T08:07:05.711Z,50.28
2023-05-20T08:09:42.281Z,51.43
2023-05-20T08:12:09.655Z,48.61
2023-05-20T08:14:37.456Z,51.89
2023-05-20T08:17:04.810Z,51.11
2023-05-20T08:19:32.490Z,48.69
2023-05-20T08:21:59.809Z,45.03
2023-05-20T08:24:27.782Z,44.60
2023-05-20T08:26:55.796Z,47.52
2023-05-20T08:29:26.123Z,44.75
2023-05-20T08:31:53.592Z,44.56
2023-05-20T08:34:21.869Z,45.07
2023-05-20T08:36:49.667Z,48.86
2023-05-20T08:39:16.986Z,46.60
2023-05-20T08:41:47.282Z,44.29
2023-05-20T08:44:14.770Z,39.97
2023-05-20T08:46:44.143Z,41.90
2023-05-20T08:49:11.859Z,42.28
2023-05-20T08:51:40.016Z,44.01
2023-05-20T08:54:09.651Z,46.18
2023-05-20T08:56:38.342Z,48.41
2023-05-20T08:59:06.650Z,51.01
2023-05-20T09:01:45.745Z,55.86
2023-05-20T09:04:13.171Z,55.17
2023-05-20T09:06:45.352Z,54.39
2023-05-20T09:09:16.045Z,57.95
2023-05-20T09:11:44.010Z,57.09
2023-05-20T09:14:11.313Z,56.92
2023-05-20T09:16:41.379Z,57.64
2023-05-20T09:19:10.057Z,54.39
2023-05-20T09:21:39.098Z,56.37
2023-05-20T09:24:07.246Z,56.41
2023-05-20T09:26:34.727Z,58.55
2023-05-20T09:29:02.282Z,56.49
2023-05-20T09:31:33.975Z,56.47
2023-05-20T09:34:02.159Z,57.16
2023-05-20T09:36:31.911Z,56.96
2023-05-20T09:39:05.846Z,54.60
2023-05-20T09:41:45.121Z,49.74
2023-05-20T09:44:13.207Z,48.42
2023-05-20T09:46:41.463Z,47.00
2023-05-20T09:49:10.276Z,51.31
2023-05-20T09:51:38.029Z,49.17
2023-05-20T09:54:08.527Z,50.74
2023-05-20T09:56:37.380Z,55.38
2023-05-20T09:59:05.853Z,58.80
2023-05-20T10:01:33.124Z,57.57
2023-05-20T10:04:01.895Z,63.27
2023-05-20T10:06:47.161Z,68.09
2023-05-20T10:09:22.990Z,64.44
2023-05-20T10:12:11.727Z,62.19
2023-05-20T10:14:55.798Z,63.40
2023-05-20T10:17:31.891Z,65.10
2023-05-20T10:20:00.583Z,64.97
2023-05-20T10:22:29.962Z,65.84
2023-05-20T10:25:06.889Z,68.86
2023-05-20T10:27:48.151Z,71.65
2023-05-20T10:30:17.734Z,71.18
2023-05-20T10:33:16.654Z,73.01
2023-05-20T10:35:50.473Z,74.29
2023-05-20T10:38:18.442Z,74.49
2023-05-20T10:40:45.953Z,75.49
2023-05-20T10:43:14.994Z,75.30
2023-05-20T10:45:49.864Z,76.32
2023-05-20T10:48:30.489Z,78.17
2023-05-20T10:51:00.527Z,78.33
2023-05-20T10:53:34.131Z,76.29
2023-05-20T10:56:03.119Z,71.77
2023-05-20T10:58:37.970Z,69.59
2023-05-20T11:01:05.752Z,67.96
2023-05-20T11:03:34.977Z,69.14
2023-05-20T11:06:02.850Z,68.87
2023-05-20T11:08:33.672Z,68.13
2023-05-20T11:11:01.409Z,67.50
2023-05-20T11:13:28.837Z,66.28
2023-05-20T11:15:59.380Z,64.14
2023-05-20T11:18:32.510Z,61.24
2023-05-20T11:21:01.208Z,63.58
2023-05-20T11:23:29.713Z,61.31
2023-05-20T11:25:57.852Z,57.96
2023-05-20T11:28:25.777Z,58.77
2023-05-20T11:30:54.090Z,56.74
2023-05-20T11:33:21.479Z,59.07
2023-05-20T11:35:51.857Z,59.47
2023-05-20T11:38:20.745Z,56.68
2023-05-20T11:40:52.094Z,56.10
2023-05-20T11:43:20.452Z,57.08
2023-05-20T11:45:53.627Z,55.71
2023-05-20T11:48:22.093Z,56.24
2023-05-20T11:50:49.706Z,55.89
2023-05-20T11:53:19.476Z,53.31
2023-05-20T11:55:51.150Z,49.37
2023-05-20T11:58:32.266Z,52.98
2023-05-20T12:01:13.249Z,53.93
2023-05-20T12:03:47.552Z,51.82
2023-05-20T12:06:15.236Z,51.71
2023-05-20T12:08:42.573Z,54.37
2023-05-20T12:11:10.112Z,54.22
2023-05-20T12:13:38.052Z,54.72
2023-05-20T12:16:06.110Z,59.55
2023-05-20T12:18:33.640Z,60.01
2023-05-20T12:21:01.644Z,62.88
2023-05-20T12:23:30.903Z,62.10
2023-05-20T12:25:58.451Z,62.36
2023-05-20T12:28:25.757Z,62.32
2023-05-20T12:30:53.303Z,63.42
2023-05-20T12:33:20.922Z,64.46
2023-05-20T12:35:48.592Z,64.30
2023-05-20T12:38:15.917Z,62.34
2023-05-20T12:40:44.185Z,60.50
2023-05-20T12:43:11.424Z,63.72
2023-05-20T12:45:38.958Z,61.61
2023-05-20T12:48:08.091Z,62.40
2023-05-20T12:50:36.395Z,62.95
2023-05-20T12:53:03.795Z,62.28
2023-05-20T12:55:32.625Z,61.88
2023-05-20T12:57:59.908Z,61.51
2023-05-20T13:00:27.567Z,61.70
2023-05-20T13:02:55.143Z,61.72
2023-05-20T13:05:23.091Z,62.70
2023-05-20T13:07:50.338Z,62.25
2023-05-20T13:10:18.711Z,64.12
2023-05-20T13:12:46.464Z,65.28
2023-05-20T13:15:17.830Z,63.21
2023-05-20T13:17:45.137Z,63.78
2023-05-20T13:20:13.304Z,64.18
2023-05-20T13:22:40.796Z,61.88
2023-05-20T13:25:09.597Z,59.74
2023-05-20T13:27:36.870Z,60.01
2023-05-20T13:30:06.345Z,58.00
2023-05-20T13:32:33.896Z,58.03
2023-05-20T13:35:01.516Z,59.94
2023-05-20T13:37:28.845Z,60.05
2023-05-20T13:39:56.387Z,61.43
2023-05-20T13:42:23.963Z,60.56
2023-05-20T13:44:51.603Z,60.53
2023-05-20T13:47:18.894Z,58.61
2023-05-20T13:49:46.456Z,59.28
2023-05-20T13:52:13.791Z,57.42
2023-05-20T13:54:43.067Z,55.59
2023-05-20T13:57:10.661Z,55.39
2023-05-20T13:59:38.699Z,55.76
2023-05-20T14:02:06.096Z,56.06
2023-05-20T14:04:39.971Z,56.19
2023-05-20T14:07:09.777Z,57.94
2023-05-20T14:09:37.997Z,58.49
2023-05-20T14:12:06.405Z,59.83
2023-05-20T14:14:34.232Z,60.19
2023-05-20T14:17:01.756Z,59.71
2023-05-20T14:19:30.147Z,59.07
2023-05-20T14:22:01.107Z,59.94
2023-05-20T14:24:28.868Z,59.67
2023-05-20T14:26:56.316Z,60.69
2023-05-20T14:29:23.920Z,58.69
2023-05-20T14:31:51.424Z,58.19
2023-05-20T14:34:18.970Z,57.82
2023-05-20T14:36:46.277Z,57.74
2023-05-20T14:39:13.905Z,56.83
2023-05-20T14:41:41.204Z,55.35
2023-05-20T14:44:08.729Z,54.97
2023-05-20T14:46:36.493Z,55.53
2023-05-20T14:49:04.130Z,56.53
2023-05-20T14:51:31.585Z,54.89
2023-05-20T14:53:59.222Z,55.70
2023-05-20T14:56:27.010Z,57.33
2023-05-20T14:58:54.593Z,58.83
2023-05-20T15:01:21.947Z,61.16
2023-05-20T15:03:49.530Z,60.15
2023-05-20T15:06:16.802Z,60.93
2023-05-20T15:08:44.416Z,62.74
2023-05-20T15:11:11.650Z,61.23
2023-05-20T15:13:40.423Z,59.02
2023-05-20T15:16:08.147Z,60.62
2023-05-20T15:18:35.821Z,58.97
2023-05-20T15:21:03.294Z,58.76
2023-05-20T15:23:31.052Z,58.32
2023-05-20T15:25:58.635Z,59.01
2023-05-20T15:28:26.324Z,58.28
2023-05-20T15:30:55.475Z,59.00
2023-05-20T15:33:23.436Z,59.07
2023-05-20T15:35:51.009Z,59.09
2023-05-20T15:38:18.673Z,59.20
2023-05-20T15:40:47.486Z,58.49
2023-05-20T15:43:15.185Z,57.90
2023-05-20T15:45:42.737Z,59.20
2023-05-20T15:48:10.401Z,57.31
2023-05-20T15:50:38.614Z,56.96
2023-05-20T15:53:07.135Z,57.25
2023-05-20T15:55:35.107Z,56.94
2023-05-20T15:58:02.945Z,57.86
2023-05-20T16:00:30.246Z,58.10
2023-05-20T16:02:57.980Z,57.78
2023-05-20T16:05:25.729Z,59.16
2023-05-20T16:07:53.567Z,59.85
2023-05-20T16:10:21.303Z,60.18
2023-05-20T16:12:49.556Z,61.37
2023-05-20T16:15:16.938Z,60.02
2023-05-20T16:17:44.505Z,58.78
2023-05-20T16:20:11.958Z,58.58
2023-05-20T16:22:39.562Z,59.01
2023-05-20T16:25:07.028Z,57.76
2023-05-20T16:27:34.637Z,59.32
2023-05-20T16:30:01.947Z,57.69
2023-05-20T16:32:29.974Z,58.58
2023-05-20T16:34:57.343Z,59.31
2023-05-20T16:37:24.936Z,59.14
2023-05-20T16:39:52.211Z,59.52
2023-05-20T16:42:19.900Z,60.06
2023-05-20T16:44:50.478Z,61.18
2023-05-20T16:47:18.110Z,61.33
2023-05-20T16:49:45.411Z,61.61
2023-05-20T16:52:12.992Z,61.88
2023-05-20T16:54:40.681Z,63.05
2023-05-20T16:57:08.458Z,62.66
2023-05-20T16:59:35.749Z,62.45
2023-05-20T17:02:03.365Z,63.18
2023-05-20T17:04:30.798Z,63.42
2023-05-20T17:06:58.681Z,63.20
2023-05-20T17:09:26.074Z,63.25
2023-05-20T17:11:54.668Z,63.45
2023-05-20T17:14:22.240Z,63.38
2023-05-20T17:16:49.947Z,63.42
2023-05-20T17:19:17.411Z,63.92
2023-05-20T17:21:45.746Z,63.85
2023-05-20T17:24:13.029Z,64.29
2023-05-20T17:26:40.751Z,64.48
2023-05-20T17:29:08.002Z,64.44
2023-05-20T17:31:35.621Z,64.44
2023-05-20T17:34:03.003Z,64.58
2023-05-20T17:36:31.531Z,63.66
2023-05-20T17:38:58.914Z,63.75
2023-05-20T17:41:28.039Z,63.98
2023-05-20T17:43:55.339Z,64.97
2023-05-20T17:46:23.350Z,64.85
2023-05-20T17:48:50.658Z,65.04
2023-05-20T17:51:21.100Z,64.69
2023-05-20T17:53:48.359Z,64.82
2023-05-20T17:56:16.400Z,65.99
2023-05-20T17:58:45.126Z,65.32
2023-05-20T18:01:12.808Z,65.40
2023-05-20T18:03:40.697Z,65.18
2023-05-20T18:06:08.875Z,65.24
2023-05-20T18:08:36.273Z,67.32
2023-05-20T18:11:04.043Z,66.95
2023-05-20T18:13:31.666Z,67.46
2023-05-20T18:15:59.407Z,67.49
2023-05-20T18:18:26.868Z,68.89
2023-05-20T18:20:54.469Z,69.92
2023-05-20T18:23:21.775Z,70.65
2023-05-20T18:25:49.431Z,70.67
2023-05-20T18:28:16.904Z,72.21
2023-05-20T18:30:44.539Z,72.07
2023-05-20T18:33:11.786Z,72.25
2023-05-20T18:35:39.461Z,73.64
2023-05-20T18:38:07.258Z,74.03
2023-05-20T18:40:35.188Z,74.77
2023-05-20T18:43:02.662Z,75.32
2023-05-20T18:45:30.360Z,75.31
2023-05-20T18:47:59.981Z,75.46
2023-05-20T18:50:27.849Z,75.05
2023-05-20T18:52:55.083Z,75.50
2023-05-20T18:55:23.989Z,75.27
2023-05-20T18:57:52.045Z,75.51
2023-05-20T19:00:19.742Z,74.26
2023-05-20T19:02:47.109Z,75.23
2023-05-20T19:05:14.849Z,75.29
2023-05-20T19:07:42.218Z,75.02
2023-05-20T19:10:10.252Z,75.02
2023-05-20T19:12:37.551Z,74.88
2023-05-20T19:15:05.884Z,75.05
2023-05-20T19:17:33.242Z,75.27
2023-05-20T19:20:01.012Z,75.50
2023-05-20T19:22:28.268Z,74.00
2023-05-20T19:24:56.100Z,74.86
2023-05-20T19:27:23.318Z,74.85
2023-05-20T19:29:50.914Z,74.62
2023-05-20T19:32:18.334Z,74.77
2023-05-20T19:34:45.881Z,74.84
2023-05-20T19:37:13.153Z,74.66
2023-05-20T19:39:40.716Z,74.36
2023-05-20T19:42:08.104Z,74.85
2023-05-20T19:44:35.840Z,73.85
2023-05-20T19:47:05.604Z,73.62
2023-05-20T19:49:33.187Z,74.43
2023-05-20T19:52:00.458Z,74.49
2023-05-20T19:54:28.029Z,73.95
2023-05-20T19:56:55.530Z,74.78
2023-05-20T19:59:23.128Z,74.39
2023-05-20T20:01:51.534Z,74.41
2023-05-20T20:04:19.465Z,74.80
2023-05-20T20:06:48.151Z,75.07
2023-05-20T20:09:16.128Z,74.78
2023-05-20T20:11:43.557Z,75.02
2023-05-20T20:14:11.183Z,75.52
2023-05-20T20:16:38.730Z,75.56
2023-05-20T20:19:06.373Z,75.99
2023-05-20T20:21:33.609Z,75.78
2023-05-20T20:24:01.485Z,76.94
2023-05-20T20:26:30.643Z,76.87
2023-05-20T20:28:58.157Z,77.37
2023-05-20T20:31:25.481Z,76.52
2023-05-20T20:33:53.723Z,76.62
2023-05-20T20:36:21.004Z,75.97
2023-05-20T20:38:48.577Z,75.65
2023-05-20T20:41:19.009Z,76.21
2023-05-20T20:43:46.540Z,76.37
2023-05-20T20:46:14.985Z,76.19
2023-05-20T20:48:46.627Z,77.36
2023-05-20T20:51:15.285Z,76.73
2023-05-20T20:53:43.804Z,76.33
2023-05-20T20:56:11.460Z,76.46
2023-05-20T20:58:39.742Z,76.40
2023-05-20T21:01:07.357Z,76.75
2023-05-20T21:03:34.937Z,76.63
2023-05-20T21:06:02.201Z,76.99
2023-05-20T21:08:30.633Z,77.59
2023-05-20T21:10:59.488Z,77.67
2023-05-20T21:13:28.358Z,79.09
2023-05-20T21:15:55.861Z,78.77
2023-05-20T21:18:24.121Z,78.86
2023-05-20T21:20:53.611Z,79.43
2023-05-20T21:23:22.206Z,79.47
2023-05-20T21:25:49.573Z,80.49
2023-05-20T21:28:17.257Z,80.64
2023-05-20T21:30:45.182Z,80.67
2023-05-20T21:33:12.840Z,81.75
2023-05-20T21:35:40.085Z,81.91
2023-05-20T21:38:07.594Z,82.31
2023-05-20T21:40:34.889Z,83.20
2023-05-20T21:43:02.441Z,83.71
2023-05-20T21:45:29.715Z,84.35
2023-05-20T21:47:57.322Z,82.59
2023-05-20T21:50:24.612Z,83.57
2023-05-20T21:52:52.876Z,84.82
2023-05-20T21:55:23.639Z,85.78
2023-05-20T21:57:51.433Z,86.26
2023-05-20T22:00:19.263Z,86.02
2023-05-20T22:02:47.229Z,86.52
2023-05-20T22:05:14.580Z,85.48
2023-05-20T22:07:43.333Z,86.91
2023-05-20T22:10:13.680Z,87.36
2023-05-20T22:12:44.332Z,88.61
2023-05-20T22:15:11.894Z,90.09
2023-05-20T22:17:40.111Z,90.23
2023-05-20T22:20:08.675Z,90.53
2023-05-20T22:22:36.922Z,91.33
2023-05-20T22:25:04.345Z,91.96
2023-05-20T22:27:32.755Z,94.25
2023-05-20T22:30:00.057Z,94.07
2023-05-20T22:32:27.685Z,94.01
2023-05-20T22:34:58.118Z,94.18
2023-05-20T22:37:28.926Z,93.62
2023-05-20T22:39:56.849Z,94.86
2023-05-20T22:42:24.415Z,95.70
2023-05-20T22:44:51.647Z,96.07
2023-05-20T22:47:19.188Z,97.04
2023-05-20T22:49:46.947Z,96.73
2023-05-20T22:52:14.586Z,96.65
2023-05-20T22:54:41.801Z,98.56
2023-05-20T22:57:09.328Z,97.98
2023-05-20T22:59:36.769Z,98.21
2023-05-20T23:02:04.682Z,98.20
2023-05-20T23:04:32.448Z,98.65
2023-05-20T23:07:00.171Z,98.80
2023-05-20T23:09:27.446Z,99.58
2023-05-20T23:11:54.990Z,99.64
2023-05-20T23:14:22.380Z,100.00
2023-05-20T23:16:50.025Z,100.00
2023-05-20T23:19:17.644Z,100.00
2023-05-20T23:21:45.567Z,100.00
2023-05-20T23:24:12.871Z,100.00
2023-05-20T23:26:40.010Z,100.00
2023-05-20T23:29:08.567Z,100.00
2023-05-20T23:31:36.225Z,100.00
2023-05-20T23:34:04.011Z,100.00
2023-05-20T23:36:34.521Z,100.00
2023-05-20T23:39:02.632Z,100.00
2023-05-20T23:41:30.060Z,100.00
2023-05-20T23:43:57.643Z,100.00
2023-05-20T23:46:24.955Z,100.00
2023-05-20T23:48:53.135Z,100.00
2023-05-20T23:51:20.825Z,100.00
2023-05-20T23:53:48.502Z,100.00
2023-05-20T23:56:15.958Z,100.00
2023-05-20T23:58:43.475Z,100.00
